sensor_id;sensor_type;location;lat;lon;timestamp;P1;durP1;ratioP1;P2;durP2;ratioP2
3121;SDS011;1571;52.524;14.104;2023-07-02T00:00:13;1.50;;;1.40;;
3121;SDS011;1571;52.524;14.104;2023-07-02T00:02:41;2.10;;;1.27;;
3121;SDS011;1571;52.524;14.104;2023-07-02T00:05:09;1.10;;;1.00;;
3121;SDS011;1571;52.524;14.104;2023-07-02T00:07:38;1.50;;;1.40;;
3121;SDS011;1571;52.524;14.104;2023-07-02T00:10:06;1.33;;;1.23;;
3121;SDS011;1571;52.524;14.104;2023-07-02T00:12:35;1.30;;;1.10;;
3121;SDS011;1571;52.524;14.104;2023-07-02T00:15:05;3.13;;;1.03;;
3121;SDS011;1571;52.524;14.104;2023-07-02T00:17:34;1.40;;;1.30;;
3121;SDS011;1571;52.524;14.104;2023-07-02T00:20:07;2.70;;;1.20;;
3121;SDS011;1571;52.524;14.104;2023-07-02T00:22:41;1.33;;;1.23;;
3121;SDS011;1571;52.524;14.104;2023-07-02T00:25:12;2.80;;;1.53;;
3121;SDS011;1571;52.524;14.104;2023-07-02T00:27:42;1.27;;;1.17;;
3121;SDS011;1571;52.524;14.104;2023-07-02T00:30:12;1.43;;;1.33;;
3121;SDS011;1571;52.524;14.104;2023-07-02T00:32:40;2.07;;;1.47;;
3121;SDS011;1571;52.524;14.104;2023-07-02T00:35:10;1.10;;;1.10;;
3121;SDS011;1571;52.524;14.104;2023-07-02T00:37:39;1.10;;;1.10;;
3121;SDS011;1571;52.524;14.104;2023-07-02T00:40:09;4.10;;;1.43;;
3121;SDS011;1571;52.524;14.104;2023-07-02T00:42:37;1.50;;;1.40;;
3121;SDS011;1571;52.524;14.104;2023-07-02T00:45:06;2.10;;;1.67;;
3121;SDS011;1571;52.524;14.104;2023-07-02T00:47:36;2.20;;;1.90;;
3121;SDS011;1571;52.524;14.104;2023-07-02T00:50:05;1.40;;;1.30;;
3121;SDS011;1571;52.524;14.104;2023-07-02T00:52:36;2.20;;;1.13;;
3121;SDS011;1571;52.524;14.104;2023-07-02T00:55:06;1.53;;;1.43;;
3121;SDS011;1571;52.524;14.104;2023-07-02T00:57:34;2.40;;;1.63;;
3121;SDS011;1571;52.524;14.104;2023-07-02T01:00:03;2.80;;;1.27;;
3121;SDS011;1571;52.524;14.104;2023-07-02T01:02:34;3.50;;;1.30;;
3121;SDS011;1571;52.524;14.104;2023-07-02T01:05:04;1.90;;;1.30;;
3121;SDS011;1571;52.524;14.104;2023-07-02T01:07:33;2.23;;;1.27;;
3121;SDS011;1571;52.524;14.104;2023-07-02T01:10:01;1.30;;;1.20;;
3121;SDS011;1571;52.524;14.104;2023-07-02T01:12:30;1.27;;;1.20;;
3121;SDS011;1571;52.524;14.104;2023-07-02T01:14:59;2.40;;;1.10;;
3121;SDS011;1571;52.524;14.104;2023-07-02T01:17:30;1.67;;;1.20;;
3121;SDS011;1571;52.524;14.104;2023-07-02T01:20:09;2.70;;;1.23;;
3121;SDS011;1571;52.524;14.104;2023-07-02T01:22:38;1.43;;;1.33;;
3121;SDS011;1571;52.524;14.104;2023-07-02T01:25:07;1.60;;;1.50;;
3121;SDS011;1571;52.524;14.104;2023-07-02T01:27:37;3.63;;;1.20;;
3121;SDS011;1571;52.524;14.104;2023-07-02T01:30:07;1.20;;;1.20;;
3121;SDS011;1571;52.524;14.104;2023-07-02T01:32:37;1.20;;;1.10;;
3121;SDS011;1571;52.524;14.104;2023-07-02T01:35:06;1.23;;;1.13;;
3121;SDS011;1571;52.524;14.104;2023-07-02T01:37:37;3.47;;;1.47;;
3121;SDS011;1571;52.524;14.104;2023-07-02T01:40:06;1.30;;;1.13;;
3121;SDS011;1571;52.524;14.104;2023-07-02T01:42:36;1.73;;;1.63;;
3121;SDS011;1571;52.524;14.104;2023-07-02T01:45:05;1.43;;;1.33;;
3121;SDS011;1571;52.524;14.104;2023-07-02T01:47:34;2.47;;;1.20;;
3121;SDS011;1571;52.524;14.104;2023-07-02T01:50:03;1.50;;;1.40;;
3121;SDS011;1571;52.524;14.104;2023-07-02T01:52:34;4.70;;;1.50;;
3121;SDS011;1571;52.524;14.104;2023-07-02T01:55:02;1.70;;;1.03;;
3121;SDS011;1571;52.524;14.104;2023-07-02T01:57:31;1.53;;;1.20;;
3121;SDS011;1571;52.524;14.104;2023-07-02T02:00:00;5.00;;;2.00;;
3121;SDS011;1571;52.524;14.104;2023-07-02T02:02:41;1.70;;;1.60;;
3121;SDS011;1571;52.524;14.104;2023-07-02T02:05:10;3.73;;;1.80;;
3121;SDS011;1571;52.524;14.104;2023-07-02T02:07:41;2.20;;;1.60;;
3121;SDS011;1571;52.524;14.104;2023-07-02T02:10:09;2.27;;;2.17;;
3121;SDS011;1571;52.524;14.104;2023-07-02T02:12:38;1.97;;;1.83;;
3121;SDS011;1571;52.524;14.104;2023-07-02T02:15:06;2.63;;;2.40;;
3121;SDS011;1571;52.524;14.104;2023-07-02T02:17:35;3.43;;;1.90;;
3121;SDS011;1571;52.524;14.104;2023-07-02T02:20:05;2.60;;;2.40;;
3121;SDS011;1571;52.524;14.104;2023-07-02T02:22:35;3.53;;;2.30;;
3121;SDS011;1571;52.524;14.104;2023-07-02T02:25:06;2.80;;;2.60;;
3121;SDS011;1571;52.524;14.104;2023-07-02T02:27:34;3.53;;;2.03;;
3121;SDS011;1571;52.524;14.104;2023-07-02T02:30:03;2.80;;;2.33;;
3121;SDS011;1571;52.524;14.104;2023-07-02T02:32:34;6.17;;;2.77;;
3121;SDS011;1571;52.524;14.104;2023-07-02T02:35:07;4.70;;;3.07;;
3121;SDS011;1571;52.524;14.104;2023-07-02T02:37:37;3.73;;;2.47;;
3121;SDS011;1571;52.524;14.104;2023-07-02T02:40:09;2.43;;;2.20;;
3121;SDS011;1571;52.524;14.104;2023-07-02T02:42:39;2.17;;;1.97;;
3121;SDS011;1571;52.524;14.104;2023-07-02T02:45:08;4.17;;;2.50;;
3121;SDS011;1571;52.524;14.104;2023-07-02T02:47:36;2.53;;;2.43;;
3121;SDS011;1571;52.524;14.104;2023-07-02T02:50:06;2.37;;;2.27;;
3121;SDS011;1571;52.524;14.104;2023-07-02T02:52:36;3.63;;;2.73;;
3121;SDS011;1571;52.524;14.104;2023-07-02T02:55:05;2.20;;;2.10;;
3121;SDS011;1571;52.524;14.104;2023-07-02T02:57:35;3.27;;;2.97;;
3121;SDS011;1571;52.524;14.104;2023-07-02T03:00:04;3.93;;;2.97;;
3121;SDS011;1571;52.524;14.104;2023-07-02T03:02:33;2.57;;;2.43;;
3121;SDS011;1571;52.524;14.104;2023-07-02T03:05:02;3.00;;;2.80;;
3121;SDS011;1571;52.524;14.104;2023-07-02T03:07:31;3.73;;;3.00;;
3121;SDS011;1571;52.524;14.104;2023-07-02T03:10:00;3.17;;;2.90;;
3121;SDS011;1571;52.524;14.104;2023-07-02T03:12:29;3.50;;;3.30;;
3121;SDS011;1571;52.524;14.104;2023-07-02T03:14:58;3.83;;;3.53;;
3121;SDS011;1571;52.524;14.104;2023-07-02T03:17:26;3.10;;;2.90;;
3121;SDS011;1571;52.524;14.104;2023-07-02T03:19:55;6.13;;;3.67;;
3121;SDS011;1571;52.524;14.104;2023-07-02T03:22:23;4.47;;;3.90;;
3121;SDS011;1571;52.524;14.104;2023-07-02T03:24:51;4.03;;;3.73;;
3121;SDS011;1571;52.524;14.104;2023-07-02T03:27:19;4.57;;;4.10;;
3121;SDS011;1571;52.524;14.104;2023-07-02T03:29:47;6.33;;;4.77;;
3121;SDS011;1571;52.524;14.104;2023-07-02T03:32:17;3.97;;;3.67;;
3121;SDS011;1571;52.524;14.104;2023-07-02T03:34:45;3.67;;;3.37;;
3121;SDS011;1571;52.524;14.104;2023-07-02T03:37:13;4.73;;;4.33;;
3121;SDS011;1571;52.524;14.104;2023-07-02T03:39:41;5.03;;;4.50;;
3121;SDS011;1571;52.524;14.104;2023-07-02T03:42:09;4.33;;;4.13;;
3121;SDS011;1571;52.524;14.104;2023-07-02T03:44:38;4.27;;;3.97;;
3121;SDS011;1571;52.524;14.104;2023-07-02T03:47:07;5.30;;;4.10;;
3121;SDS011;1571;52.524;14.104;2023-07-02T03:49:37;3.93;;;3.63;;
3121;SDS011;1571;52.524;14.104;2023-07-02T03:52:05;4.70;;;4.43;;
3121;SDS011;1571;52.524;14.104;2023-07-02T03:54:36;5.57;;;3.90;;
3121;SDS011;1571;52.524;14.104;2023-07-02T03:57:04;3.63;;;3.43;;
3121;SDS011;1571;52.524;14.104;2023-07-02T03:59:33;7.10;;;4.60;;
3121;SDS011;1571;52.524;14.104;2023-07-02T04:02:02;4.53;;;4.13;;
3121;SDS011;1571;52.524;14.104;2023-07-02T04:04:30;8.17;;;3.97;;
3121;SDS011;1571;52.524;14.104;2023-07-02T04:07:00;4.37;;;3.53;;
3121;SDS011;1571;52.524;14.104;2023-07-02T04:09:28;4.00;;;3.80;;
3121;SDS011;1571;52.524;14.104;2023-07-02T04:11:59;3.80;;;3.60;;
3121;SDS011;1571;52.524;14.104;2023-07-02T04:14:27;4.67;;;4.37;;
3121;SDS011;1571;52.524;14.104;2023-07-02T04:16:55;4.50;;;3.93;;
3121;SDS011;1571;52.524;14.104;2023-07-02T04:19:24;4.10;;;3.80;;
3121;SDS011;1571;52.524;14.104;2023-07-02T04:21:52;5.27;;;3.60;;
3121;SDS011;1571;52.524;14.104;2023-07-02T04:24:22;3.93;;;3.63;;
3121;SDS011;1571;52.524;14.104;2023-07-02T04:26:50;4.63;;;3.50;;
3121;SDS011;1571;52.524;14.104;2023-07-02T04:29:39;3.90;;;3.60;;
3121;SDS011;1571;52.524;14.104;2023-07-02T04:32:08;3.67;;;3.43;;
3121;SDS011;1571;52.524;14.104;2023-07-02T04:34:36;10.40;;;3.37;;
3121;SDS011;1571;52.524;14.104;2023-07-02T04:37:04;3.50;;;3.30;;
3121;SDS011;1571;52.524;14.104;2023-07-02T04:39:34;3.50;;;3.20;;
3121;SDS011;1571;52.524;14.104;2023-07-02T04:42:03;4.10;;;3.03;;
3121;SDS011;1571;52.524;14.104;2023-07-02T04:44:32;5.20;;;2.83;;
3121;SDS011;1571;52.524;14.104;2023-07-02T04:47:01;3.10;;;2.80;;
3121;SDS011;1571;52.524;14.104;2023-07-02T04:49:29;3.23;;;2.60;;
3121;SDS011;1571;52.524;14.104;2023-07-02T04:51:58;3.47;;;2.73;;
3121;SDS011;1571;52.524;14.104;2023-07-02T04:54:26;2.40;;;2.30;;
3121;SDS011;1571;52.524;14.104;2023-07-02T04:56:55;3.10;;;2.80;;
3121;SDS011;1571;52.524;14.104;2023-07-02T04:59:25;3.03;;;2.73;;
3121;SDS011;1571;52.524;14.104;2023-07-02T05:01:54;2.90;;;2.70;;
3121;SDS011;1571;52.524;14.104;2023-07-02T05:04:22;1.70;;;1.60;;
3121;SDS011;1571;52.524;14.104;2023-07-02T05:06:50;2.77;;;2.53;;
3121;SDS011;1571;52.524;14.104;2023-07-02T05:09:18;2.33;;;2.10;;
3121;SDS011;1571;52.524;14.104;2023-07-02T05:11:46;3.73;;;2.10;;
3121;SDS011;1571;52.524;14.104;2023-07-02T05:14:16;2.43;;;2.00;;
3121;SDS011;1571;52.524;14.104;2023-07-02T05:16:44;3.33;;;3.03;;
3121;SDS011;1571;52.524;14.104;2023-07-02T05:19:12;5.70;;;2.53;;
3121;SDS011;1571;52.524;14.104;2023-07-02T05:21:41;2.03;;;1.63;;
3121;SDS011;1571;52.524;14.104;2023-07-02T05:24:09;3.00;;;2.07;;
3121;SDS011;1571;52.524;14.104;2023-07-02T05:26:37;3.13;;;1.80;;
3121;SDS011;1571;52.524;14.104;2023-07-02T05:29:06;1.80;;;1.70;;
3121;SDS011;1571;52.524;14.104;2023-07-02T05:31:36;1.57;;;1.47;;
3121;SDS011;1571;52.524;14.104;2023-07-02T05:34:04;1.50;;;1.40;;
3121;SDS011;1571;52.524;14.104;2023-07-02T05:36:32;5.63;;;1.90;;
3121;SDS011;1571;52.524;14.104;2023-07-02T05:39:01;1.70;;;1.60;;
3121;SDS011;1571;52.524;14.104;2023-07-02T05:41:29;1.70;;;1.60;;
3121;SDS011;1571;52.524;14.104;2023-07-02T05:43:58;1.50;;;1.40;;
3121;SDS011;1571;52.524;14.104;2023-07-02T05:46:27;1.80;;;1.70;;
3121;SDS011;1571;52.524;14.104;2023-07-02T05:48:57;2.03;;;1.53;;
3121;SDS011;1571;52.524;14.104;2023-07-02T05:51:26;1.60;;;1.50;;
3121;SDS011;1571;52.524;14.104;2023-07-02T05:53:55;1.60;;;1.50;;
3121;SDS011;1571;52.524;14.104;2023-07-02T05:56:23;1.93;;;1.40;;
3121;SDS011;1571;52.524;14.104;2023-07-02T05:58:51;1.67;;;1.47;;
3121;SDS011;1571;52.524;14.104;2023-07-02T06:01:20;5.43;;;1.50;;
3121;SDS011;1571;52.524;14.104;2023-07-02T06:03:49;1.50;;;1.40;;
3121;SDS011;1571;52.524;14.104;2023-07-02T06:06:19;1.93;;;1.80;;
3121;SDS011;1571;52.524;14.104;2023-07-02T06:08:49;2.70;;;1.87;;
3121;SDS011;1571;52.524;14.104;2023-07-02T06:11:17;1.87;;;1.50;;
3121;SDS011;1571;52.524;14.104;2023-07-02T06:13:46;1.83;;;1.73;;
3121;SDS011;1571;52.524;14.104;2023-07-02T06:16:14;4.40;;;1.87;;
3121;SDS011;1571;52.524;14.104;2023-07-02T06:18:42;4.33;;;2.00;;
3121;SDS011;1571;52.524;14.104;2023-07-02T06:21:11;3.43;;;1.60;;
3121;SDS011;1571;52.524;14.104;2023-07-02T06:23:41;3.13;;;2.10;;
3121;SDS011;1571;52.524;14.104;2023-07-02T06:26:10;5.10;;;2.00;;
3121;SDS011;1571;52.524;14.104;2023-07-02T06:28:38;1.70;;;1.60;;
3121;SDS011;1571;52.524;14.104;2023-07-02T06:31:07;3.30;;;1.63;;
3121;SDS011;1571;52.524;14.104;2023-07-02T06:33:38;1.90;;;1.63;;
3121;SDS011;1571;52.524;14.104;2023-07-02T06:36:07;2.97;;;1.80;;
3121;SDS011;1571;52.524;14.104;2023-07-02T06:38:38;1.93;;;1.73;;
3121;SDS011;1571;52.524;14.104;2023-07-02T06:41:08;2.90;;;1.70;;
3121;SDS011;1571;52.524;14.104;2023-07-02T06:43:37;2.70;;;2.50;;
3121;SDS011;1571;52.524;14.104;2023-07-02T06:46:05;3.00;;;1.97;;
3121;SDS011;1571;52.524;14.104;2023-07-02T06:48:34;3.30;;;1.77;;
3121;SDS011;1571;52.524;14.104;2023-07-02T06:51:02;4.30;;;1.97;;
3121;SDS011;1571;52.524;14.104;2023-07-02T06:53:30;4.73;;;2.33;;
3121;SDS011;1571;52.524;14.104;2023-07-02T06:56:00;3.33;;;2.10;;
3121;SDS011;1571;52.524;14.104;2023-07-02T06:58:30;6.43;;;2.07;;
3121;SDS011;1571;52.524;14.104;2023-07-02T07:00:58;1.63;;;1.20;;
3121;SDS011;1571;52.524;14.104;2023-07-02T07:03:26;2.10;;;1.83;;
3121;SDS011;1571;52.524;14.104;2023-07-02T07:05:55;4.90;;;1.80;;
3121;SDS011;1571;52.524;14.104;2023-07-02T07:08:23;3.07;;;2.10;;
3121;SDS011;1571;52.524;14.104;2023-07-02T07:10:51;2.30;;;1.70;;
3121;SDS011;1571;52.524;14.104;2023-07-02T07:13:21;1.97;;;1.80;;
3121;SDS011;1571;52.524;14.104;2023-07-02T07:15:49;2.20;;;1.67;;
3121;SDS011;1571;52.524;14.104;2023-07-02T07:18:18;2.90;;;1.60;;
3121;SDS011;1571;52.524;14.104;2023-07-02T07:20:46;2.37;;;1.83;;
3121;SDS011;1571;52.524;14.104;2023-07-02T07:23:16;2.60;;;1.97;;
3121;SDS011;1571;52.524;14.104;2023-07-02T07:25:45;2.80;;;1.50;;
3121;SDS011;1571;52.524;14.104;2023-07-02T07:28:13;1.33;;;1.23;;
3121;SDS011;1571;52.524;14.104;2023-07-02T07:30:45;2.77;;;2.03;;
3121;SDS011;1571;52.524;14.104;2023-07-02T07:33:13;1.50;;;1.40;;
3121;SDS011;1571;52.524;14.104;2023-07-02T07:35:42;1.77;;;1.40;;
3121;SDS011;1571;52.524;14.104;2023-07-02T07:38:10;7.40;;;1.80;;
3121;SDS011;1571;52.524;14.104;2023-07-02T07:40:41;5.10;;;1.70;;
3121;SDS011;1571;52.524;14.104;2023-07-02T07:43:10;8.10;;;1.80;;
3121;SDS011;1571;52.524;14.104;2023-07-02T07:45:38;2.47;;;1.60;;
3121;SDS011;1571;52.524;14.104;2023-07-02T07:48:08;7.27;;;2.10;;
3121;SDS011;1571;52.524;14.104;2023-07-02T07:50:36;2.20;;;1.70;;
3121;SDS011;1571;52.524;14.104;2023-07-02T07:53:05;3.13;;;1.80;;
3121;SDS011;1571;52.524;14.104;2023-07-02T07:55:33;4.53;;;1.70;;
3121;SDS011;1571;52.524;14.104;2023-07-02T07:58:01;3.30;;;1.60;;
3121;SDS011;1571;52.524;14.104;2023-07-02T08:00:30;4.37;;;1.53;;
3121;SDS011;1571;52.524;14.104;2023-07-02T08:02:58;2.60;;;1.83;;
3121;SDS011;1571;52.524;14.104;2023-07-02T08:05:29;2.40;;;1.77;;
3121;SDS011;1571;52.524;14.104;2023-07-02T08:07:57;2.87;;;1.60;;
3121;SDS011;1571;52.524;14.104;2023-07-02T08:10:25;2.93;;;1.70;;
3121;SDS011;1571;52.524;14.104;2023-07-02T08:12:54;3.20;;;2.00;;
3121;SDS011;1571;52.524;14.104;2023-07-02T08:15:22;2.00;;;1.80;;
3121;SDS011;1571;52.524;14.104;2023-07-02T08:17:51;4.67;;;2.13;;
3121;SDS011;1571;52.524;14.104;2023-07-02T08:20:21;3.10;;;1.80;;
3121;SDS011;1571;52.524;14.104;2023-07-02T08:22:52;1.80;;;1.70;;
3121;SDS011;1571;52.524;14.104;2023-07-02T08:25:20;3.33;;;2.00;;
3121;SDS011;1571;52.524;14.104;2023-07-02T08:27:49;2.57;;;1.77;;
3121;SDS011;1571;52.524;14.104;2023-07-02T08:30:18;4.23;;;1.90;;
3121;SDS011;1571;52.524;14.104;2023-07-02T08:32:46;3.47;;;1.80;;
3121;SDS011;1571;52.524;14.104;2023-07-02T08:35:14;4.07;;;1.63;;
3121;SDS011;1571;52.524;14.104;2023-07-02T08:37:43;1.67;;;1.23;;
3121;SDS011;1571;52.524;14.104;2023-07-02T08:42:56;3.87;;;2.10;;
3121;SDS011;1571;52.524;14.104;2023-07-02T08:45:28;1.50;;;1.33;;
3121;SDS011;1571;52.524;14.104;2023-07-02T08:47:57;5.90;;;2.40;;
3121;SDS011;1571;52.524;14.104;2023-07-02T08:50:26;9.60;;;2.07;;
3121;SDS011;1571;52.524;14.104;2023-07-02T08:52:55;4.43;;;1.37;;
3121;SDS011;1571;52.524;14.104;2023-07-02T08:55:23;2.50;;;2.17;;
3121;SDS011;1571;52.524;14.104;2023-07-02T08:57:53;3.47;;;2.00;;
3121;SDS011;1571;52.524;14.104;2023-07-02T09:00:27;2.70;;;1.40;;
3121;SDS011;1571;52.524;14.104;2023-07-02T09:02:58;4.23;;;1.63;;
3121;SDS011;1571;52.524;14.104;2023-07-02T09:05:26;2.13;;;1.73;;
3121;SDS011;1571;52.524;14.104;2023-07-02T09:07:54;3.50;;;1.80;;
3121;SDS011;1571;52.524;14.104;2023-07-02T09:10:26;2.80;;;1.57;;
3121;SDS011;1571;52.524;14.104;2023-07-02T09:13:03;4.90;;;2.13;;
3121;SDS011;1571;52.524;14.104;2023-07-02T09:15:36;3.77;;;2.10;;
3121;SDS011;1571;52.524;14.104;2023-07-02T09:18:14;2.83;;;2.03;;
3121;SDS011;1571;52.524;14.104;2023-07-02T09:20:44;3.03;;;2.10;;
3121;SDS011;1571;52.524;14.104;2023-07-02T09:23:13;4.20;;;1.87;;
3121;SDS011;1571;52.524;14.104;2023-07-02T09:25:41;1.90;;;1.80;;
3121;SDS011;1571;52.524;14.104;2023-07-02T09:28:20;4.90;;;3.17;;
3121;SDS011;1571;52.524;14.104;2023-07-02T09:30:51;3.60;;;2.10;;
3121;SDS011;1571;52.524;14.104;2023-07-02T09:33:20;2.53;;;1.90;;
3121;SDS011;1571;52.524;14.104;2023-07-02T09:35:49;4.03;;;2.20;;
3121;SDS011;1571;52.524;14.104;2023-07-02T09:38:19;2.20;;;2.00;;
3121;SDS011;1571;52.524;14.104;2023-07-02T09:40:49;2.23;;;1.90;;
3121;SDS011;1571;52.524;14.104;2023-07-02T09:43:18;4.23;;;2.20;;
3121;SDS011;1571;52.524;14.104;2023-07-02T09:45:49;3.40;;;3.00;;
3121;SDS011;1571;52.524;14.104;2023-07-02T09:48:18;2.43;;;2.23;;
3121;SDS011;1571;52.524;14.104;2023-07-02T09:50:52;2.30;;;1.83;;
3121;SDS011;1571;52.524;14.104;2023-07-02T09:53:21;3.43;;;2.30;;
3121;SDS011;1571;52.524;14.104;2023-07-02T09:55:49;2.70;;;2.50;;
3121;SDS011;1571;52.524;14.104;2023-07-02T09:58:17;2.73;;;1.60;;
3121;SDS011;1571;52.524;14.104;2023-07-02T10:00:46;3.90;;;2.33;;
3121;SDS011;1571;52.524;14.104;2023-07-02T10:03:16;3.00;;;2.20;;
3121;SDS011;1571;52.524;14.104;2023-07-02T10:05:44;2.53;;;2.43;;
3121;SDS011;1571;52.524;14.104;2023-07-02T10:08:13;3.37;;;2.50;;
3121;SDS011;1571;52.524;14.104;2023-07-02T10:10:44;4.20;;;2.40;;
3121;SDS011;1571;52.524;14.104;2023-07-02T10:13:14;3.00;;;2.43;;
3121;SDS011;1571;52.524;14.104;2023-07-02T10:15:43;4.90;;;2.30;;
3121;SDS011;1571;52.524;14.104;2023-07-02T10:18:11;2.97;;;2.77;;
3121;SDS011;1571;52.524;14.104;2023-07-02T10:20:41;3.70;;;2.80;;
3121;SDS011;1571;52.524;14.104;2023-07-02T10:23:10;4.07;;;3.30;;
3121;SDS011;1571;52.524;14.104;2023-07-02T10:25:38;3.20;;;2.90;;
3121;SDS011;1571;52.524;14.104;2023-07-02T10:28:13;6.53;;;3.60;;
3121;SDS011;1571;52.524;14.104;2023-07-02T10:30:42;4.70;;;3.43;;
3121;SDS011;1571;52.524;14.104;2023-07-02T10:33:11;6.43;;;3.70;;
3121;SDS011;1571;52.524;14.104;2023-07-02T10:35:42;3.67;;;2.70;;
3121;SDS011;1571;52.524;14.104;2023-07-02T10:38:14;5.10;;;3.33;;
3121;SDS011;1571;52.524;14.104;2023-07-02T10:40:43;3.23;;;2.93;;
3121;SDS011;1571;52.524;14.104;2023-07-02T10:43:12;4.00;;;3.20;;
3121;SDS011;1571;52.524;14.104;2023-07-02T10:45:41;7.30;;;3.30;;
3121;SDS011;1571;52.524;14.104;2023-07-02T10:48:09;6.50;;;3.50;;
3121;SDS011;1571;52.524;14.104;2023-07-02T10:50:38;5.60;;;4.00;;
3121;SDS011;1571;52.524;14.104;2023-07-02T10:53:14;5.67;;;3.50;;
3121;SDS011;1571;52.524;14.104;2023-07-02T10:55:43;3.80;;;2.97;;
3121;SDS011;1571;52.524;14.104;2023-07-02T10:58:12;6.77;;;3.80;;
3121;SDS011;1571;52.524;14.104;2023-07-02T11:00:44;5.57;;;4.30;;
3121;SDS011;1571;52.524;14.104;2023-07-02T11:03:16;6.63;;;3.93;;
3121;SDS011;1571;52.524;14.104;2023-07-02T11:05:46;4.30;;;3.03;;
3121;SDS011;1571;52.524;14.104;2023-07-02T11:08:17;6.37;;;3.73;;
3121;SDS011;1571;52.524;14.104;2023-07-02T11:10:48;4.30;;;3.43;;
3121;SDS011;1571;52.524;14.104;2023-07-02T11:13:17;5.67;;;4.30;;
3121;SDS011;1571;52.524;14.104;2023-07-02T11:15:46;4.47;;;3.77;;
3121;SDS011;1571;52.524;14.104;2023-07-02T11:18:16;12.07;;;4.53;;
3121;SDS011;1571;52.524;14.104;2023-07-02T11:20:48;8.40;;;3.40;;
3121;SDS011;1571;52.524;14.104;2023-07-02T11:23:18;8.80;;;3.80;;
3121;SDS011;1571;52.524;14.104;2023-07-02T11:25:55;6.03;;;3.93;;
3121;SDS011;1571;52.524;14.104;2023-07-02T11:28:25;8.07;;;4.20;;
3121;SDS011;1571;52.524;14.104;2023-07-02T11:30:54;13.00;;;4.03;;
3121;SDS011;1571;52.524;14.104;2023-07-02T11:33:33;7.77;;;4.70;;
3121;SDS011;1571;52.524;14.104;2023-07-02T11:36:02;6.50;;;4.67;;
3121;SDS011;1571;52.524;14.104;2023-07-02T11:38:33;6.13;;;4.17;;
3121;SDS011;1571;52.524;14.104;2023-07-02T11:41:02;7.80;;;4.37;;
3121;SDS011;1571;52.524;14.104;2023-07-02T11:43:31;10.60;;;5.20;;
3121;SDS011;1571;52.524;14.104;2023-07-02T11:45:59;10.10;;;5.20;;
3121;SDS011;1571;52.524;14.104;2023-07-02T11:48:27;8.43;;;4.20;;
3121;SDS011;1571;52.524;14.104;2023-07-02T11:50:55;12.50;;;8.53;;
3121;SDS011;1571;52.524;14.104;2023-07-02T11:53:24;7.10;;;4.87;;
3121;SDS011;1571;52.524;14.104;2023-07-02T11:55:53;6.93;;;4.37;;
3121;SDS011;1571;52.524;14.104;2023-07-02T12:01:14;9.33;;;4.83;;
3121;SDS011;1571;52.524;14.104;2023-07-02T12:03:43;7.30;;;4.60;;
3121;SDS011;1571;52.524;14.104;2023-07-02T12:06:12;6.90;;;4.20;;
3121;SDS011;1571;52.524;14.104;2023-07-02T12:08:40;5.90;;;4.90;;
3121;SDS011;1571;52.524;14.104;2023-07-02T12:11:10;8.20;;;4.37;;
3121;SDS011;1571;52.524;14.104;2023-07-02T12:13:38;8.00;;;4.07;;
3121;SDS011;1571;52.524;14.104;2023-07-02T12:16:07;6.57;;;4.67;;
3121;SDS011;1571;52.524;14.104;2023-07-02T12:18:35;9.50;;;4.83;;
3121;SDS011;1571;52.524;14.104;2023-07-02T12:21:04;6.43;;;4.67;;
3121;SDS011;1571;52.524;14.104;2023-07-02T12:23:32;6.00;;;4.60;;
3121;SDS011;1571;52.524;14.104;2023-07-02T12:26:01;8.30;;;4.80;;
3121;SDS011;1571;52.524;14.104;2023-07-02T12:28:32;8.80;;;4.77;;
3121;SDS011;1571;52.524;14.104;2023-07-02T12:31:00;8.03;;;5.40;;
3121;SDS011;1571;52.524;14.104;2023-07-02T12:33:29;13.80;;;5.10;;
3121;SDS011;1571;52.524;14.104;2023-07-02T12:35:58;5.57;;;4.40;;
3121;SDS011;1571;52.524;14.104;2023-07-02T12:38:27;11.30;;;5.20;;
3121;SDS011;1571;52.524;14.104;2023-07-02T12:40:55;6.60;;;4.30;;
3121;SDS011;1571;52.524;14.104;2023-07-02T12:43:23;6.00;;;4.57;;
3121;SDS011;1571;52.524;14.104;2023-07-02T12:45:53;7.33;;;4.37;;
3121;SDS011;1571;52.524;14.104;2023-07-02T12:48:22;12.97;;;4.80;;
3121;SDS011;1571;52.524;14.104;2023-07-02T12:50:54;6.83;;;4.50;;
3121;SDS011;1571;52.524;14.104;2023-07-02T12:53:22;5.63;;;3.90;;
3121;SDS011;1571;52.524;14.104;2023-07-02T12:55:52;6.53;;;3.87;;
3121;SDS011;1571;52.524;14.104;2023-07-02T12:58:20;14.70;;;4.57;;
3121;SDS011;1571;52.524;14.104;2023-07-02T13:00:49;6.53;;;4.17;;
3121;SDS011;1571;52.524;14.104;2023-07-02T13:03:19;8.30;;;4.70;;
3121;SDS011;1571;52.524;14.104;2023-07-02T13:05:48;9.07;;;4.30;;
3121;SDS011;1571;52.524;14.104;2023-07-02T13:08:16;8.80;;;5.10;;
3121;SDS011;1571;52.524;14.104;2023-07-02T13:10:45;11.00;;;5.53;;
3121;SDS011;1571;52.524;14.104;2023-07-02T13:13:13;7.10;;;4.90;;
3121;SDS011;1571;52.524;14.104;2023-07-02T13:15:49;8.10;;;4.63;;
3121;SDS011;1571;52.524;14.104;2023-07-02T13:18:19;8.17;;;4.50;;
3121;SDS011;1571;52.524;14.104;2023-07-02T13:20:48;9.67;;;5.67;;
3121;SDS011;1571;52.524;14.104;2023-07-02T13:23:16;18.43;;;6.10;;
3121;SDS011;1571;52.524;14.104;2023-07-02T13:25:44;8.87;;;5.37;;
3121;SDS011;1571;52.524;14.104;2023-07-02T13:28:13;25.10;;;6.07;;
3121;SDS011;1571;52.524;14.104;2023-07-02T13:30:41;13.50;;;5.83;;
3121;SDS011;1571;52.524;14.104;2023-07-02T13:33:10;10.00;;;5.80;;
3121;SDS011;1571;52.524;14.104;2023-07-02T13:35:39;9.27;;;4.93;;
3121;SDS011;1571;52.524;14.104;2023-07-02T13:38:08;9.37;;;3.93;;
3121;SDS011;1571;52.524;14.104;2023-07-02T13:40:37;8.13;;;5.03;;
3121;SDS011;1571;52.524;14.104;2023-07-02T13:43:05;8.03;;;5.20;;
3121;SDS011;1571;52.524;14.104;2023-07-02T13:45:33;12.50;;;4.60;;
3121;SDS011;1571;52.524;14.104;2023-07-02T13:48:02;7.77;;;4.90;;
3121;SDS011;1571;52.524;14.104;2023-07-02T13:50:32;6.90;;;5.33;;
3121;SDS011;1571;52.524;14.104;2023-07-02T13:53:02;15.80;;;6.50;;
3121;SDS011;1571;52.524;14.104;2023-07-02T13:55:30;8.60;;;4.80;;
3121;SDS011;1571;52.524;14.104;2023-07-02T13:57:58;7.57;;;5.27;;
3121;SDS011;1571;52.524;14.104;2023-07-02T14:00:29;8.50;;;4.87;;
3121;SDS011;1571;52.524;14.104;2023-07-02T14:02:58;8.37;;;5.87;;
3121;SDS011;1571;52.524;14.104;2023-07-02T14:05:26;12.10;;;5.10;;
3121;SDS011;1571;52.524;14.104;2023-07-02T14:07:55;15.40;;;5.27;;
3121;SDS011;1571;52.524;14.104;2023-07-02T14:10:23;8.00;;;4.73;;
3121;SDS011;1571;52.524;14.104;2023-07-02T14:12:51;13.90;;;5.00;;
3121;SDS011;1571;52.524;14.104;2023-07-02T14:15:19;8.23;;;5.67;;
3121;SDS011;1571;52.524;14.104;2023-07-02T14:17:49;8.10;;;5.00;;
3121;SDS011;1571;52.524;14.104;2023-07-02T14:20:18;7.93;;;5.60;;
3121;SDS011;1571;52.524;14.104;2023-07-02T14:22:46;6.73;;;3.67;;
3121;SDS011;1571;52.524;14.104;2023-07-02T14:25:15;7.53;;;4.43;;
3121;SDS011;1571;52.524;14.104;2023-07-02T14:28:02;7.77;;;5.07;;
3121;SDS011;1571;52.524;14.104;2023-07-02T14:30:30;10.83;;;4.63;;
3121;SDS011;1571;52.524;14.104;2023-07-02T14:33:00;6.70;;;4.97;;
3121;SDS011;1571;52.524;14.104;2023-07-02T14:35:29;6.40;;;4.10;;
3121;SDS011;1571;52.524;14.104;2023-07-02T14:37:58;12.13;;;5.30;;
3121;SDS011;1571;52.524;14.104;2023-07-02T14:40:26;8.07;;;4.60;;
3121;SDS011;1571;52.524;14.104;2023-07-02T14:42:54;8.40;;;4.90;;
3121;SDS011;1571;52.524;14.104;2023-07-02T14:45:23;8.00;;;5.20;;
3121;SDS011;1571;52.524;14.104;2023-07-02T14:47:51;11.30;;;5.40;;
3121;SDS011;1571;52.524;14.104;2023-07-02T14:50:21;8.13;;;5.13;;
3121;SDS011;1571;52.524;14.104;2023-07-02T14:52:49;9.60;;;6.00;;
3121;SDS011;1571;52.524;14.104;2023-07-02T14:55:17;12.70;;;5.17;;
3121;SDS011;1571;52.524;14.104;2023-07-02T14:57:45;8.23;;;5.30;;
3121;SDS011;1571;52.524;14.104;2023-07-02T15:00:14;8.63;;;4.53;;
3121;SDS011;1571;52.524;14.104;2023-07-02T15:02:42;11.90;;;5.37;;
3121;SDS011;1571;52.524;14.104;2023-07-02T15:05:11;8.00;;;4.33;;
3121;SDS011;1571;52.524;14.104;2023-07-02T15:07:41;7.97;;;4.23;;
3121;SDS011;1571;52.524;14.104;2023-07-02T15:10:09;5.70;;;4.40;;
3121;SDS011;1571;52.524;14.104;2023-07-02T15:12:38;5.93;;;4.50;;
3121;SDS011;1571;52.524;14.104;2023-07-02T15:15:06;9.57;;;4.03;;
3121;SDS011;1571;52.524;14.104;2023-07-02T15:17:36;6.60;;;4.63;;